Tiempo atmosférico en la estación meteorológica de Valderrobres, Teruel (482 m.)



Fecha
DESCASC
Temp. máxima en grados centígrados (hora)
DESCASC
Temp. mínima en grados centígrados (hora)
DESCASC
Temp. media en grados centígrados
DESCASC
Racha de viento máxima en m/sg (hora)
DESCASC
Velocidad máxima media en intervalos de 10 minutos(hora)
DESCASC
Precipitaciones diarias en mm
DESCASC
Precipitaciones de 00:00 a 06:00 en mm
DESCASC
Precipitaciones de 06:00 a 12:00 en mm
DESCASC
Precipitaciones de 12:00 a 18:00 en mm
DESCASC
Precipitaciones de 18:00 a 24:00 en mm
DESCASC
17-09-2020 30.1 (15:30) 14.2 (06:00) 22.2 10.56 (15:10) 5 (15:40) 0 0 0 0 0
15-09-2020 30.1 (14:50) 16.9 (09:10) 23.5 7.22 (15:40) 3.33 (15:40) 1.6 0 0 1.6 0
14-09-2020 30.5 (15:00) 11.4 (07:40) 20.9 10 (16:40) 5.28 (16:40) 0 0 0 0 0
13-09-2020 31.8 (14:50) 11.1 (00:00) 21.4 8.33 (16:20) 4.44 (16:20) 0 0 0 0 0
12-09-2020 30.4 (17:00) 10.8 (08:10) 20.6 7.78 (17:30) 3.33 (17:30) 0 0 0 0 0
11-09-2020 28.9 (17:10) 10.3 (00:00) 19.6 5 (11:50) 2.78 (12:00) 0 0 0 0 0
10-09-2020 27.9 (16:50) 12.5 (00:00) 20.2 7.78 (17:00) 3.89 (17:10) 0 0 0 0 0
09-09-2020 23.8 (17:20) 12.7 (06:00) 18.2 6.94 (12:50) 2.78 (13:00) 0.2 0.2 0 0 0
08-09-2020 25.2 (17:30) 6.6 (00:00) 15.9 6.94 (13:50) 3.61 (17:10) 0 0 0 0 0
07-09-2020 23.9 (17:50) 13.7 (08:00) 18.8 8.89 (04:30) 4.72 (10:50) 0 0 0 0 0
06-09-2020 26.3 (15:30) 12.9 (00:00) 19.6 7.22 (10:20) 4.17 (10:20) 0.8 0 0 0 0.8
05-09-2020 30.9 (16:50) 10.1 (00:00) 20.5 6.11 (23:40) 2.78 (15:40) 0 0 0 0 0
04-09-2020 30.8 (15:50) 9.9 (00:00) 20.3 7.22 (14:50) 4.17 (17:20) 0 0 0 0 0
03-09-2020 29.6 (17:10) 7.6 (00:00) 18.6 6.94 (18:40) 4.17 (18:40) 0 0 0 0 0
02-09-2020 26.2 (16:50) 8 (00:00) 17.1 7.22 (18:20) 4.17 (14:40) 0 0 0 0 0
01-09-2020 25.4 (14:50) 9.4 (00:00) 17.4 5.83 (15:40) 2.78 (15:40) 0 0 0 0 0
31-08-2020 25.6 (18:40) 7.5 (00:00) 16.6 7.22 (09:40) 3.61 (16:40) 0 0 0 0 0
30-08-2020 21.8 (16:20) 12.6 (00:00) 17.2 11.11 (01:00) 5.83 (10:20) 0 0 0 0 0
29-08-2020 22.9 (16:50) 16 (00:00) 19.4 12.22 (20:10) 6.67 (20:40) 0 0 0 0 0
28-08-2020 30 (15:40) 17.3 (00:00) 23.6 9.72 (18:10) 4.44 (18:10) 0.4 0 0 0 0.4
27-08-2020 34.8 (17:20) 17.9 (00:00) 26.3 6.94 (17:30) 3.33 (17:40) 0 0 0 0 0
26-08-2020 34.4 (16:50) 17.1 (00:00) 25.8 5.56 (15:50) 2.5 (18:40) 0 0 0 0 0
25-08-2020 35.1 (18:00) 15.8 (00:00) 25.4 7.22 (19:40) 3.61 (18:20) 0 0 0 0 0
24-08-2020 30.1 (17:30) 10.9 (07:40) 20.5 6.11 (15:30) 3.33 (16:10) 0 0 0 0 0
23-08-2020 29.8 (16:50) 15 (00:00) 22.4 6.11 (16:40) 3.61 (15:40) 0 0 0 0 0
22-08-2020 32 (16:50) 17.2 (00:00) 24.6 9.17 (00:30) 5 (00:40) 0 0 0 0 0
21-08-2020 35.2 (16:50) 15.7 (07:40) 25.5 7.78 (01:20) 3.61 (17:50) 0 0 0 0 0

Gráficas

Temp. máximas Temp. mínimas Temp. medias Precipitaciones Rachas de viento máximas Velocidades máximas media en intervalos de 10 minutos

Datos horarios

Fecha y hora oficial Temperatura (ºC) Velocidad del viento (km/h) Dirección del viento Racha (km/h) Dirección de racha Precipitación (mm) Presión (hPa) Tendencia (hPa) Humedad (%)
2020-09-19 23:00:00 20.1 3 Sudoeste 6 Sur 0 -- -- 64
2020-09-19 22:00:00 21.3 3 Sudoeste 18 Oeste 0 -- -- 54
2020-09-19 21:00:00 21.9 3 Oeste 10 Noroeste 0 -- -- 52
2020-09-19 20:00:00 22 4 Sudoeste 8 Sudoeste 0 -- -- 59
2020-09-19 19:00:00 23.9 2 Oeste 13 Noroeste 0 -- -- 45
2020-09-19 18:00:00 24.2 2 Norte 10 Oeste 0 -- -- 45
2020-09-19 17:00:00 25.2 5 Norte 18 Norte 0 -- -- 41
2020-09-19 16:00:00 26.3 6 Norte 20 Noroeste 0 -- -- 39
2020-09-19 15:00:00 25.3 5 Oeste 22 Noroeste 0 -- -- 42
2020-09-19 14:00:00 26.1 8 Noroeste 21 Noroeste 0 -- -- 41
2020-09-19 13:00:00 24.6 9 Noroeste 18 Oeste 0 -- -- 44
2020-09-19 12:00:00 23.9 7 Oeste 14 Oeste 0 -- -- 47
2020-09-19 11:00:00 22.1 3 Norte 10 Noroeste 0 -- -- 60
2020-09-19 10:00:00 17.3 2 Sudeste 6 Nordeste 0 -- -- 88
2020-09-19 09:00:00 14.4 3 Este 6 Oeste 0 -- -- 98
2020-09-19 08:00:00 13.6 2 Este 9 Oeste 0 -- -- 96
2020-09-19 07:00:00 14.1 3 Oeste 11 Oeste 0 -- -- 95
2020-09-19 06:00:00 14.8 0 Calma 10 Oeste 0 -- -- 93
2020-09-19 05:00:00 15.5 4 Oeste 9 Sur 0.2 -- -- 89
2020-09-19 04:00:00 15 0 Calma 6 Oeste 0 -- -- 88
2020-09-19 03:00:00 14.7 4 Oeste 6 Oeste 0 -- -- 88
2020-09-19 02:00:00 15.2 0 Calma 4 Este 0 -- -- 85
2020-09-19 01:00:00 16.2 0 Calma 8 Sudoeste 0 -- -- 79
2020-09-19 00:00:00 18.6 5 Sudoeste 13 Sur 0 -- -- 69
2020-09-18 23:00:00 20.2 5 Sur 18 Sudeste 0 -- -- 65
2020-09-18 22:00:00 20.5 5 Oeste 14 Sudeste 0 -- -- 68
2020-09-18 21:00:00 20.5 4 Sur 22 Sudeste 0 -- -- 69
2020-09-18 20:00:00 21.2 3 Sur 19 Este 0 -- -- 65
2020-09-18 19:00:00 22.4 10 Sudeste 37 Sudeste 0 -- -- 62
2020-09-18 18:00:00 23 14 Sudeste 39 Sudeste 0 -- -- 60
2020-09-18 17:00:00 22.9 14 Sudeste 36 Sudeste 0 -- -- 62
2020-09-18 16:00:00 24.1 8 Sur 35 Este 0 -- -- 59
2020-09-18 15:00:00 24.6 16 Sudeste 37 Sudeste 0 -- -- 56
2020-09-18 14:00:00 25.5 9 Sur 27 Sudeste 0 -- -- 51
2020-09-18 13:00:00 26.2 9 Sudeste 28 Sur 0 -- -- 48
2020-09-18 12:00:00 22.4 4 Este 13 Nordeste 0 -- -- 63
2020-09-18 11:00:00 21 2 Sudeste 10 Sudoeste 0 -- -- 77
2020-09-18 10:00:00 21.8 8 Este 28 Sudeste 0 -- -- 66
2020-09-18 09:00:00 22.4 8 Este 24 Este 0 -- -- 68
2020-09-18 08:00:00 22.5 8 Sudeste 14 Sur 0 -- -- 66
2020-09-18 07:00:00 22.1 6 Nordeste 15 Norte 0 -- -- 64
2020-09-18 06:00:00 22.4 5 Nordeste 27 Este 0 -- -- 54
2020-09-18 05:00:00 21.6 5 Noroeste 18 Norte 0 -- -- 50
2020-09-18 04:00:00 21.9 8 Sudeste 26 Nordeste 0 -- -- 45
2020-09-18 03:00:00 22.6 3 Noroeste 24 Sudeste 0 -- -- 45
2020-09-18 02:00:00 20.1 3 Sur 9 Sudoeste 0 -- -- 52
2020-09-18 01:00:00 19.6 4 Este 9 Norte 0 -- -- 55
2020-09-18 00:00:00 19 3 Norte 11 Nordeste 0 -- -- 57
2020-09-17 23:00:00 19.8 0 Calma 5 Sudoeste 0 -- -- 55
2020-09-17 22:00:00 21.5 3 Sur 10 Sudoeste 0 -- -- 52
2020-09-17 21:00:00 24.2 5 Este 20 Este 0 -- -- 44
2020-09-17 20:00:00 25.6 7 Nordeste 24 Sudeste 0 -- -- 43
2020-09-17 19:00:00 26.9 6 Sudeste 23 Sur 0 -- -- 46
2020-09-17 18:00:00 27.6 9 Sudeste 23 Sudeste 0 -- -- 43
2020-09-17 17:00:00 27.5 12 Este 29 Sudeste 0 -- -- 46
2020-09-17 16:00:00 29.4 12 Sudeste 38 Sudeste 0 -- -- 39
2020-09-17 15:00:00 29.7 15 Sudeste 35 Sudoeste 0 -- -- 32
2020-09-17 14:00:00 28.7 7 Sudeste 23 Sudeste 0 -- -- 30
2020-09-17 13:00:00 26.4 4 Oeste 19 Este 0 -- -- 45
2020-09-17 12:00:00 21.3 0 Calma 11 Este 0 -- -- 72
2020-09-17 11:00:00 19.1 0 Calma 9 Oeste 0 -- -- 79
2020-09-17 10:00:00 17.4 3 Oeste 7 Oeste 0 -- -- 83
2020-09-17 09:00:00 16.1 0 Calma 9 Este 0 -- -- 86
2020-09-17 08:00:00 14.9 0 Calma 4 Nordeste 0 -- -- 91
2020-09-17 07:00:00 14.4 0 Calma 4 Sudoeste 0 -- -- 92
2020-09-17 06:00:00 14.2 0 Calma 3 Noroeste 0 -- -- 92
2020-09-17 05:00:00 14.3 0 Calma 3 Oeste 0 -- -- 90
2020-09-17 04:00:00 14.8 0 Calma 5 Oeste 0 -- -- 89
2020-09-17 03:00:00 15.4 0 Calma 5 Sur 0 -- -- 88
2020-09-17 02:00:00 16.3 0 Calma 5 Oeste 0 -- -- 86
2020-09-17 01:00:00 17.3 0 Calma 7 Sudeste 0 -- -- 82
2020-09-17 00:00:00 18.1 3 Oeste 5 Oeste 0 -- -- 79
2020-09-16 23:00:00 19.4 2 Sudoeste 7 Sudeste 0 -- -- 73
2020-09-16 22:00:00 20.9 3 Oeste 8 Sudoeste 0 -- -- 71
2020-09-16 21:00:00 23.4 2 Sur 8 Sudoeste 0 -- -- 61
2020-09-16 20:00:00 26.5 3 Nordeste 17 Este 0 -- -- 53
2020-09-16 19:00:00 28.5 9 Sudeste 20 Sudeste 0 -- -- 47
2020-09-16 18:00:00 29.8 12 Este 28 Sudeste 0 -- -- 44
2020-09-16 17:00:00 29.8 10 Sudeste 21 Sudeste 0 -- -- 45
2020-09-16 16:00:00 31.1 6 Norte 18 Noroeste 0 -- -- 38
2020-09-16 15:00:00 30.6 5 Sur 18 Nordeste 0 -- -- 35
2020-09-16 14:00:00 29.7 5 Norte 14 Nordeste 0 -- -- 38
2020-09-16 13:00:00 28.4 3 Sudoeste 8 Este 0 -- -- 43
2020-09-16 12:00:00 26.1 4 Sudoeste 8 Oeste 0 -- -- 48
2020-09-16 11:00:00 22.6 0 Calma -- -- 0 -- -- 63
2020-09-16 10:00:00 17.6 0 Calma -- -- 0 -- -- 87
2020-09-16 09:00:00 14.4 0 Calma -- -- 0 -- -- 98
2020-09-16 08:00:00 13.2 0 Calma -- -- 0 -- -- 96
2020-09-16 07:00:00 13.5 0 Calma -- -- 0 -- -- 95
2020-09-16 06:00:00 14 0 Calma -- -- 0 -- -- 94
2020-09-16 05:00:00 14.4 0 Calma 2 Sudeste 0 -- -- 94
2020-09-16 04:00:00 15 0 Calma 3 Oeste 0 -- -- 92
2020-09-16 03:00:00 15.6 0 Calma 4 Oeste 0 -- -- 91
2020-09-16 02:00:00 16.3 0 Calma 5 Sudeste 0 -- -- 90
2020-09-16 01:00:00 17.1 0 Calma 8 Oeste 0 -- -- 87
2020-09-16 00:00:00 18.2 0 Calma 5 Sur 0 -- -- 84
2020-09-15 23:00:00 19.5 0 Calma 6 Oeste 0 -- -- 83
2020-09-15 22:00:00 21 2 Noroeste 9 Oeste 0 -- -- 78
2020-09-15 21:00:00 23.7 3 Sudoeste 9 Sur 0 -- -- 64
2020-09-15 20:00:00 25.2 4 Norte 19 Sur 0 -- -- 52
2020-09-15 19:00:00 25.4 6 Sur 19 Sur 0 -- -- 50
2020-09-15 18:00:00 25.9 0 Calma 11 Sudeste 0 -- -- 63
2020-09-15 17:00:00 23.5 3 Sur 19 Sur 1.6 -- -- 80
2020-09-15 16:00:00 29.2 11 Este 26 Sudeste 0 -- -- 45
2020-09-15 15:00:00 30.1 9 Nordeste 21 Este 0 -- -- 38
2020-09-15 14:00:00 29 5 Norte 17 Nordeste 0 -- -- 36
2020-09-15 13:00:00 28.4 6 Norte 16 Norte 0 -- -- 37
2020-09-15 12:00:00 27.5 3 Nordeste 8 Nordeste 0 -- -- 39
2020-09-15 11:00:00 24.6 0 Calma 4 Nordeste 0 -- -- 47
2020-09-15 10:00:00 19.1 0 Calma 4 Este 0 -- -- 71
2020-09-15 09:00:00 17 0 Calma 4 Oeste 0 -- -- 80
2020-09-15 08:00:00 18 4 Sudoeste 6 Sudoeste 0 -- -- 73
2020-09-15 07:00:00 19.5 5 Nordeste 17 Sudoeste 0 -- -- 65
2020-09-15 06:00:00 19.7 3 Sur 12 Este 0 -- -- 62
2020-09-15 05:00:00 18.6 4 Sudoeste 9 Este 0 -- -- 61
2020-09-15 04:00:00 19 4 Sudoeste 8 Sudoeste 0 -- -- 62
2020-09-15 03:00:00 19.9 2 Sudoeste 8 Sudeste 0 -- -- 49
2020-09-15 02:00:00 18 2 Sur 12 Sudoeste 0 -- -- 54
2020-09-15 01:00:00 18 2 Sudeste 8 Sur 0 -- -- 62
2020-09-15 00:00:00 19.3 2 Sudeste 12 Sudoeste 0 -- -- 59
2020-09-14 23:00:00 19.6 3 Sudoeste 9 Sudoeste 0 -- -- 54
2020-09-14 22:00:00 20.8 2 Sudeste 9 Sudeste 0 -- -- 53
2020-09-14 21:00:00 22.5 2 Sudoeste 10 Sudoeste 0 -- -- 52
2020-09-14 20:00:00 24.8 5 Norte 15 Este 0 -- -- 48
2020-09-14 19:00:00 26.5 8 Este 33 Sudeste 0 -- -- 45
2020-09-14 18:00:00 28.8 10 Sudeste 28 Este 0 -- -- 36
2020-09-14 17:00:00 29.8 13 Este 36 Este 0 -- -- 37
2020-09-14 16:00:00 29.5 13 Sudeste 33 Este 0 -- -- 35
2020-09-14 15:00:00 30.5 14 Sudeste 28 Sudeste 0 -- -- 34
2020-09-14 14:00:00 30.4 14 Sudeste 31 Este 0 -- -- 32
2020-09-14 13:00:00 29.8 14 Sudeste 24 Sudeste 0 -- -- 32
2020-09-14 12:00:00 28.9 11 Este 23 Sudeste 0 -- -- 34
2020-09-14 11:00:00 25.3 0 Calma 7 Este 0 -- -- 40
2020-09-14 10:00:00 18.2 0 Calma 3 Noroeste 0 -- -- 68
2020-09-14 09:00:00 13 0 Calma 3 Oeste 0 -- -- 88
2020-09-14 08:00:00 11.4 0 Calma 0 Calma 0 -- -- 91
2020-09-14 07:00:00 11.7 0 Calma 4 Oeste 0 -- -- 90
2020-09-14 06:00:00 12.2 0 Calma 4 Oeste 0 -- -- 88
2020-09-14 05:00:00 12.8 0 Calma 5 Oeste 0 -- -- 85
2020-09-14 04:00:00 13.4 0 Calma 4 Oeste 0 -- -- 83
2020-09-14 03:00:00 14.1 0 Calma 6 Oeste 0 -- -- 81
2020-09-14 02:00:00 15 0 Calma -- -- 0 -- -- 78
2020-09-14 01:00:00 16 0 Calma 6 Oeste 0 -- -- 73
2020-09-14 00:00:00 17.5 3 Oeste 5 Oeste 0 -- -- 67
2020-09-13 23:00:00 19 0 Calma 8 Sudoeste 0 -- -- 60
2020-09-13 22:00:00 20.3 4 Oeste 8 Sudoeste 0 -- -- 57
2020-09-13 21:00:00 23.3 4 Sudoeste 14 Este 0 -- -- 48
2020-09-13 20:00:00 26.5 5 Este 19 Sudeste 0 -- -- 40
2020-09-13 19:00:00 28.8 8 Sudeste 27 Sudeste 0 -- -- 36
2020-09-13 18:00:00 30.2 12 Sudeste 28 Este 0 -- -- 32
2020-09-13 17:00:00 31.2 12 Sudeste 30 Sudeste 0 -- -- 32
2020-09-13 16:00:00 31.5 13 Sudeste 27 Este 0 -- -- 31
2020-09-13 15:00:00 31.7 15 Este 28 Este 0 -- -- 29
2020-09-13 14:00:00 30.9 9 Este 18 Este 0 -- -- 31
2020-09-13 13:00:00 29.2 4 Este 13 Este 0 -- -- 36
2020-09-13 12:00:00 27.7 4 Este 17 Nordeste 0 -- -- 39
2020-09-13 11:00:00 23.4 0 Calma 4 Este 0 -- -- 51
2020-09-13 10:00:00 17.1 0 Calma -- -- 0 -- -- 70
2020-09-13 09:00:00 12.7 0 Calma -- -- 0 -- -- 92
2020-09-13 08:00:00 11.1 0 Calma -- -- 0 -- -- 94
2020-09-13 07:00:00 11.4 0 Calma -- -- 0 -- -- 92
2020-09-13 06:00:00 12 0 Calma -- -- 0 -- -- 91
2020-09-13 05:00:00 12.6 0 Calma 4 Este 0 -- -- 89
2020-09-13 04:00:00 13.2 0 Calma 6 Sudoeste 0 -- -- 88
2020-09-13 03:00:00 13.9 0 Calma 5 Oeste 0 -- -- 85
2020-09-13 02:00:00 14.6 0 Calma 3 Sudeste 0 -- -- 84
2020-09-13 01:00:00 15.8 0 Calma 7 Oeste 0 -- -- 79
2020-09-13 00:00:00 16.7 2 Sudoeste 6 Este 0 -- -- 76
2020-09-12 23:00:00 18.2 0 Calma 9 Sudoeste 0 -- -- 72
2020-09-12 22:00:00 20.3 2 Oeste 6 Sudoeste 0 -- -- 63
2020-09-12 21:00:00 22.9 3 Sur 8 Sudoeste 0 -- -- 53
2020-09-12 20:00:00 26.4 0 Calma 18 Sudeste 0 -- -- 46
2020-09-12 19:00:00 28.5 8 Sudeste 20 Sur 0 -- -- 41
2020-09-12 18:00:00 29.2 7 Sudeste 28 Este 0 -- -- 41
2020-09-12 17:00:00 30.4 11 Este 21 Nordeste 0 -- -- 36
2020-09-12 16:00:00 29.8 6 Norte 20 Nordeste 0 -- -- 38
2020-09-12 15:00:00 28.9 4 Norte 16 Norte 0 -- -- 41
2020-09-12 14:00:00 27.8 6 Nordeste 15 Oeste 0 -- -- 43
2020-09-12 13:00:00 26.1 6 Nordeste 14 Nordeste 0 -- -- 49
2020-09-12 12:00:00 24.6 6 Noroeste 16 Oeste 0 -- -- 54
2020-09-12 11:00:00 22.6 7 Noroeste 11 Noroeste 0 -- -- 58
2020-09-12 10:00:00 17.1 0 Calma 3 Este 0 -- -- 68
2020-09-12 09:00:00 12.5 0 Calma 6 Oeste 0 -- -- 91
2020-09-12 08:00:00 10.9 0 Calma 5 Oeste 0 -- -- 93
2020-09-12 07:00:00 11.2 0 Calma 3 Noroeste 0 -- -- 92
2020-09-12 06:00:00 11.9 3 Oeste 4 Sudoeste 0 -- -- 89
2020-09-12 05:00:00 12.4 2 Sudeste 12 Oeste 0 -- -- 89
2020-09-12 04:00:00 12.5 0 Calma -- -- 0 -- -- 88
2020-09-12 03:00:00 13.1 0 Calma -- -- 0 -- -- 86
2020-09-12 02:00:00 13.8 0 Calma -- -- 0 -- -- 84
2020-09-12 01:00:00 14.8 0 Calma -- -- 0 -- -- 79
2020-09-12 00:00:00 15.8 0 Calma 5 Oeste 0 -- -- 75
2020-09-11 23:00:00 17.4 2 Oeste 5 Sudoeste 0 -- -- 70
2020-09-11 22:00:00 20 2 Sudoeste 9 Sur 0 -- -- 61
2020-09-11 21:00:00 23.6 4 Sudeste 12 Sudeste 0 -- -- 47
2020-09-11 20:00:00 26.5 2 Este 12 Noroeste 0 -- -- 39
2020-09-11 19:00:00 28.7 5 Noroeste 13 Este 0 -- -- 33
2020-09-11 18:00:00 28.9 5 Norte 15 Oeste 0 -- -- 31
2020-09-11 17:00:00 28.8 4 Noroeste 15 Nordeste 0 -- -- 30
2020-09-11 16:00:00 28.5 5 Sudeste 15 Oeste 0 -- -- 34
2020-09-11 15:00:00 27.5 5 Sur 18 Oeste 0 -- -- 38
2020-09-11 14:00:00 26.3 5 Norte 14 Oeste 0 -- -- 41
2020-09-11 13:00:00 24.8 5 Noroeste 17 Oeste 0 -- -- 45
2020-09-11 12:00:00 23.4 10 Noroeste 18 Oeste 0 -- -- 48
2020-09-11 11:00:00 21.8 4 Oeste 16 Noroeste 0 -- -- 56
2020-09-11 10:00:00 17.2 3 Norte 10 Oeste 0 -- -- 73
2020-09-11 09:00:00 11.9 0 Calma 3 Oeste 0 -- -- 89
2020-09-11 08:00:00 10.3 3 Oeste 5 Oeste 0 -- -- 92
2020-09-11 07:00:00 10.6 0 Calma 5 Oeste 0 -- -- 90
2020-09-11 06:00:00 11.1 2 Sur 5 Oeste 0 -- -- 88
2020-09-11 05:00:00 11.7 2 Sudoeste 11 Oeste 0 -- -- 87
2020-09-11 04:00:00 12.6 0 Calma 6 Noroeste 0 -- -- 85
2020-09-11 03:00:00 13.6 2 Oeste 4 Oeste 0 -- -- 82
2020-09-11 02:00:00 14.7 0 Calma 6 Noroeste 0 -- -- 77
2020-09-11 01:00:00 16.1 0 Calma 4 Sur 0 -- -- 72
2020-09-11 00:00:00 17.3 0 Calma 7 Sudeste 0 -- -- 69
2020-09-10 23:00:00 18.2 2 Oeste 9 Oeste 0 -- -- 67
2020-09-10 22:00:00 19.4 0 Calma 4 Sudeste 0 -- -- 60
2020-09-10 21:00:00 22.1 0 Calma 8 Sudoeste 0 -- -- 48
2020-09-10 20:00:00 25.8 3 Sudoeste 15 Noroeste 0 -- -- 39
2020-09-10 19:00:00 27.6 11 Noroeste 19 Oeste 0 -- -- 33
2020-09-10 18:00:00 27.7 8 Norte 25 Noroeste 0 -- -- 34
2020-09-10 17:00:00 27.9 12 Oeste 28 Oeste 0 -- -- 35
2020-09-10 16:00:00 27.5 8 Oeste 24 Noroeste 0 -- -- 39
2020-09-10 15:00:00 26.4 5 Noroeste 13 Norte 0 -- -- 40
2020-09-10 14:00:00 25.2 10 Noroeste 21 Noroeste 0 -- -- 43
2020-09-10 13:00:00 23.5 13 Oeste 23 Oeste 0 -- -- 48
2020-09-10 12:00:00 21.8 13 Noroeste 23 Oeste 0 -- -- 52
2020-09-10 11:00:00 20.7 9 Sudoeste 20 Oeste 0 -- -- 60
2020-09-10 10:00:00 16.7 0 Calma -- -- 0 -- -- 86
2020-09-10 09:00:00 13.6 0 Calma -- -- 0 -- -- 97
2020-09-10 08:00:00 12.6 0 Calma -- -- 0 -- -- 95
2020-09-10 07:00:00 13.1 0 Calma 6 Sudeste 0 -- -- 92
2020-09-10 06:00:00 13.7 0 Calma 2 Sudeste 0 -- -- 93
2020-09-10 05:00:00 14 0 Calma 3 Sudoeste 0 -- -- 93
2020-09-10 04:00:00 14.3 0 Calma 5 Nordeste 0 -- -- 92
2020-09-10 03:00:00 15.1 0 Calma 7 Sudoeste 0 -- -- 87
2020-09-10 02:00:00 16 3 Oeste 6 Oeste 0 -- -- 88
2020-09-10 01:00:00 17.2 2 Este 5 Sur 0 -- -- 85
2020-09-10 00:00:00 17.5 3 Sudoeste 7 Oeste 0 -- -- 81
2020-09-09 23:00:00 17.9 0 Calma 5 Sur 0 -- -- 79
2020-09-09 22:00:00 18.4 0 Calma 4 Sudoeste 0 -- -- 76
2020-09-09 21:00:00 20.2 0 Calma 6 Sudoeste 0 -- -- 63
2020-09-09 20:00:00 22.7 0 Calma 9 Este 0 -- -- 59
2020-09-09 19:00:00 23.1 6 Este 13 Este 0 -- -- 52
2020-09-09 18:00:00 23.4 6 Este 12 Sudeste 0 -- -- 53
2020-09-09 17:00:00 23.3 4 Este 8 Nordeste 0 -- -- 54
2020-09-09 16:00:00 22.6 5 Nordeste 12 Oeste 0 -- -- 54
2020-09-09 15:00:00 23 6 Norte 22 Oeste 0 -- -- 54
2020-09-09 14:00:00 22.7 9 Noroeste 20 Oeste 0 -- -- 56
2020-09-09 13:00:00 22.1 10 Oeste 25 Oeste 0 -- -- 59
2020-09-09 12:00:00 19.9 8 Noroeste 13 Norte 0 -- -- 70
2020-09-09 11:00:00 16.6 0 Calma 3 Norte 0 -- -- 82
2020-09-09 10:00:00 14.8 0 Calma 4 Oeste 0 -- -- 90
2020-09-09 09:00:00 14.1 2 Noroeste 7 Oeste 0 -- -- 94
2020-09-09 08:00:00 13.4 3 Nordeste 7 Oeste 0 -- -- 95
2020-09-09 07:00:00 12.7 0 Calma 4 Noroeste 0 -- -- 96
2020-09-09 06:00:00 12.7 0 Calma 5 Noroeste 0 -- -- 95
2020-09-09 05:00:00 13.3 3 Sur 6 Sudoeste 0 -- -- 94
2020-09-09 04:00:00 13.6 2 Oeste 6 Sudoeste 0 -- -- 90
2020-09-09 03:00:00 14.7 0 Calma 7 Sudoeste 0 -- -- 89
2020-09-09 02:00:00 15.6 0 Calma 8 Oeste 0.2 -- -- 88
2020-09-09 01:00:00 16.7 2 Sur 5 Sudoeste 0 -- -- 80
2020-09-09 00:00:00 17.1 0 Calma 5 Oeste 0 -- -- 68
2020-09-08 23:00:00 18.8 4 Sudoeste 11 Este 0 -- -- 60
2020-09-08 22:00:00 20.2 6 Este 12 Este 0 -- -- 53
2020-09-08 21:00:00 20.5 5 Sudeste 9 Sudeste 0 -- -- 51
2020-09-08 20:00:00 22.9 5 Sudeste 17 Sudeste 0 -- -- 44
2020-09-08 19:00:00 24.7 12 Sudeste 18 Sudeste 0 -- -- 39
2020-09-08 18:00:00 24.6 6 Nordeste 21 Este 0 -- -- 34
2020-09-08 17:00:00 25.1 9 Este 20 Nordeste 0 -- -- 34
2020-09-08 16:00:00 24.3 5 Este 21 Nordeste 0 -- -- 34
2020-09-08 15:00:00 23.7 5 Nordeste 18 Este 0 -- -- 37
2020-09-08 14:00:00 22.6 6 Norte 25 Oeste 0 -- -- 39
2020-09-08 13:00:00 21 5 Sudoeste 15 Oeste 0 -- -- 46
2020-09-08 12:00:00 19.5 6 Oeste 14 Oeste 0 -- -- 51
2020-09-08 11:00:00 17.4 4 Este 13 Oeste 0 -- -- 56
2020-09-08 10:00:00 12.7 0 Calma 0 Calma 0 -- -- 74
2020-09-08 09:00:00 8.5 0 Calma -- -- 0 -- -- 93
2020-09-08 08:00:00 6.6 0 Calma -- -- 0 -- -- 93
2020-09-08 07:00:00 6.9 0 Calma -- -- 0 -- -- 92
2020-09-08 06:00:00 7.5 0 Calma -- -- 0 -- -- 90
2020-09-08 05:00:00 8.2 0 Calma -- -- 0 -- -- 87
2020-09-08 04:00:00 9 0 Calma -- -- 0 -- -- 84
2020-09-08 03:00:00 9.8 0 Calma -- -- 0 -- -- 83
2020-09-08 02:00:00 11.3 0 Calma 7 Nordeste 0 -- -- 75
2020-09-08 01:00:00 12.1 2 Sudeste 8 Noroeste 0 -- -- 73
2020-09-08 00:00:00 13.7 2 Sur 11 Sudoeste 0 -- -- 61
2020-09-07 23:00:00 14.8 3 Sudoeste 8 Sur 0 -- -- 61
2020-09-07 22:00:00 16.3 3 Oeste 6 Oeste 0 -- -- 52
2020-09-07 21:00:00 18.9 0 Calma 14 Oeste 0 -- -- 46
2020-09-07 20:00:00 21.4 13 Oeste 25 Oeste 0 -- -- 38
2020-09-07 19:00:00 23.1 12 Oeste 31 Oeste 0 -- -- 36
2020-09-07 18:00:00 23.9 13 Noroeste 29 Oeste 0 -- -- 37
2020-09-07 17:00:00 23.6 13 Oeste 22 Noroeste 0 -- -- 37
2020-09-07 16:00:00 22.9 9 Oeste 27 Oeste 0 -- -- 40
2020-09-07 15:00:00 22 14 Oeste 28 Oeste 0 -- -- 42
2020-09-07 14:00:00 20.6 11 Oeste 30 Noroeste 0 -- -- 47
2020-09-07 13:00:00 19.7 13 Oeste 29 Sudoeste 0 -- -- 47
2020-09-07 12:00:00 17.7 11 Noroeste 29 Oeste 0 -- -- 53
2020-09-07 11:00:00 17 14 Oeste 31 Noroeste 0 -- -- 57
2020-09-07 10:00:00 16 14 Oeste 31 Oeste 0 -- -- 60
2020-09-07 09:00:00 14.6 10 Oeste 29 Oeste 0 -- -- 65
2020-09-07 08:00:00 13.7 9 Oeste 26 Sudoeste 0 -- -- 67
2020-09-07 07:00:00 14.1 7 Sudoeste 24 Oeste 0 -- -- 65
2020-09-07 06:00:00 14.7 10 Oeste 28 Oeste 0 -- -- 63
2020-09-07 05:00:00 15 12 Oeste 32 Oeste 0 -- -- 65
2020-09-07 04:00:00 15 8 Sudoeste 21 Oeste 0 -- -- 68
2020-09-07 03:00:00 15.3 8 Sudoeste 22 Sudoeste 0 -- -- 71
2020-09-07 02:00:00 14.8 9 Sudoeste 26 Oeste 0 -- -- 75
2020-09-07 01:00:00 14.8 3 Sudoeste 9 Sur 0 -- -- 87
2020-09-07 00:00:00 15.6 4 Sudoeste 15 Sudoeste 0 -- -- 86
2020-09-06 23:00:00 18 8 Sudoeste 22 Noroeste 0.8 -- -- 71
2020-09-06 22:00:00 20.2 6 Oeste 18 Oeste 0 -- -- 50
2020-09-06 21:00:00 20.9 5 Oeste 14 Sudoeste 0 -- -- 52
2020-09-06 20:00:00 22.5 7 Oeste 24 Noroeste 0 -- -- 51
2020-09-06 19:00:00 24.6 12 Oeste 24 Oeste 0 -- -- 47
2020-09-06 18:00:00 25.4 10 Oeste 23 Noroeste 0 -- -- 46
2020-09-06 17:00:00 24.8 9 Oeste 22 Noroeste 0 -- -- 48
2020-09-06 16:00:00 25.7 11 Noroeste 24 Oeste 0 -- -- 46
2020-09-06 15:00:00 25.6 9 Noroeste 22 Oeste 0 -- -- 46
2020-09-06 14:00:00 24.3 9 Oeste 23 Noroeste 0 -- -- 50
2020-09-06 13:00:00 22.9 10 Noroeste 23 Noroeste 0 -- -- 54
2020-09-06 12:00:00 21.5 12 Noroeste 21 Noroeste 0 -- -- 58
2020-09-06 11:00:00 20.2 8 Oeste 26 Oeste 0 -- -- 63
2020-09-06 10:00:00 18.4 10 Oeste 18 Oeste 0 -- -- 69
2020-09-06 09:00:00 14.2 0 Calma 7 Oeste 0 -- -- 90
2020-09-06 08:00:00 12.9 0 Calma 7 Oeste 0 -- -- 92
2020-09-06 07:00:00 13.6 0 Calma 5 Sudeste 0 -- -- 88
2020-09-06 06:00:00 14.9 0 Calma 6 Este 0 -- -- 84
2020-09-06 05:00:00 16.1 0 Calma 10 Sudoeste 0 -- -- 79
2020-09-06 04:00:00 17.1 4 Sudoeste 9 Sur 0 -- -- 75
2020-09-06 03:00:00 18 4 Sudoeste 13 Oeste 0 -- -- 73
2020-09-06 02:00:00 18.6 3 Sudoeste 13 Oeste 0 -- -- 70
2020-09-06 01:00:00 20.4 4 Sudoeste 21 Oeste 0 -- -- 64
2020-09-06 00:00:00 21.5 7 Oeste 22 Oeste 0 -- -- 62
2020-09-05 23:00:00 20.9 4 Noroeste 15 Noroeste 0 -- -- 76
2020-09-05 22:00:00 23.1 2 Sur 6 Sur 0 -- -- 66
2020-09-05 21:00:00 25.5 0 Calma 12 Este 0 -- -- 58
2020-09-05 20:00:00 27.9 8 Nordeste 16 Nordeste 0 -- -- 51
2020-09-05 19:00:00 30.5 7 Nordeste 15 Norte 0 -- -- 33
2020-09-05 18:00:00 30.7 5 Norte 18 Oeste 0 -- -- 33
2020-09-05 17:00:00 30.6 3 Nordeste 19 Oeste 0 -- -- 32
2020-09-05 16:00:00 30.5 7 Norte 21 Noroeste 0 -- -- 34
2020-09-05 15:00:00 29.9 5 Noroeste 15 Oeste 0 -- -- 33
2020-09-05 14:00:00 28.7 6 Norte 13 Norte 0 -- -- 33
2020-09-05 13:00:00 27.4 6 Nordeste 15 Nordeste 0 -- -- 35
2020-09-05 12:00:00 25.9 7 Oeste 13 Oeste 0 -- -- 41
2020-09-05 11:00:00 22.5 4 Sudoeste 7 Oeste 0 -- -- 46
2020-09-05 10:00:00 17.7 3 Noroeste 6 Oeste 0 -- -- 63
2020-09-05 09:00:00 12.2 0 Calma 3 Oeste 0 -- -- 87
2020-09-05 08:00:00 10.1 0 Calma 4 Oeste 0 -- -- 93
2020-09-05 07:00:00 10.5 0 Calma 3 Oeste 0 -- -- 92
2020-09-05 06:00:00 11.1 0 Calma 2 Oeste 0 -- -- 90
2020-09-05 05:00:00 11.8 0 Calma 4 Noroeste 0 -- -- 89
2020-09-05 04:00:00 12.5 3 Sudoeste 5 Oeste 0 -- -- 87
2020-09-05 03:00:00 13.1 0 Calma 6 Oeste 0 -- -- 86
2020-09-05 02:00:00 14.2 0 Calma 4 Sudoeste 0 -- -- 81
2020-09-05 01:00:00 15.3 3 Oeste 6 Sudoeste 0 -- -- 81
2020-09-05 00:00:00 16.9 0 Calma 6 Sudoeste 0 -- -- 77
2020-09-04 23:00:00 18.4 3 Sur 8 Sur 0 -- -- 72
2020-09-04 22:00:00 20.7 3 Sur 7 Sudoeste 0 -- -- 65
2020-09-04 21:00:00 23.7 4 Sur 17 Sudeste 0 -- -- 58
2020-09-04 20:00:00 25.9 11 Sudeste 23 Este 0 -- -- 54
2020-09-04 19:00:00 28.3 11 Sudeste 25 Sudeste 0 -- -- 46
2020-09-04 18:00:00 29.4 13 Este 26 Sudeste 0 -- -- 44
2020-09-04 17:00:00 30.2 14 Sudeste 26 Este 0 -- -- 41
2020-09-04 16:00:00 30.7 12 Este 25 Sudeste 0 -- -- 36
2020-09-04 15:00:00 30.5 13 Sudeste 26 Este 0 -- -- 28
2020-09-04 14:00:00 29.8 12 Sudeste 22 Sudeste 0 -- -- 30
2020-09-04 13:00:00 28 4 Sudeste 16 Nordeste 0 -- -- 36
2020-09-04 12:00:00 26.3 7 Nordeste 15 Nordeste 0 -- -- 38
2020-09-04 11:00:00 23.1 2 Sudoeste 6 Este 0 -- -- 49
2020-09-04 10:00:00 16.9 0 Calma -- -- 0 -- -- 73
2020-09-04 09:00:00 11.9 0 Calma -- -- 0 -- -- 96
2020-09-04 08:00:00 9.9 0 Calma -- -- 0 -- -- 96
2020-09-04 07:00:00 10.3 0 Calma -- -- 0 -- -- 94
2020-09-04 06:00:00 10.9 0 Calma -- -- 0 -- -- 93
2020-09-04 05:00:00 11.8 0 Calma -- -- 0 -- -- 91
2020-09-04 04:00:00 12.6 0 Calma -- -- 0 -- -- 91
2020-09-04 03:00:00 13.4 0 Calma 2 Sudeste 0 -- -- 89
2020-09-04 02:00:00 14.4 0 Calma 5 Sudoeste 0 -- -- 87
2020-09-04 01:00:00 15.6 0 Calma 6 Oeste 0 -- -- 86
2020-09-04 00:00:00 17 0 Calma 6 Oeste 0 -- -- 81
2020-09-03 23:00:00 19.1 2 Sudoeste 7 Sudoeste 0 -- -- 75
2020-09-03 22:00:00 20.9 4 Sudoeste 10 Sudoeste 0 -- -- 68
2020-09-03 21:00:00 23.6 6 Sudeste 16 Sudeste 0 -- -- 61
2020-09-03 20:00:00 25.4 9 Sudeste 20 Sudeste 0 -- -- 57
2020-09-03 19:00:00 27.4 12 Sudeste 25 Sudeste 0 -- -- 52
2020-09-03 18:00:00 29.1 10 Sudeste 19 Sudeste 0 -- -- 47
2020-09-03 17:00:00 29.5 5 Este 17 Norte 0 -- -- 25
2020-09-03 16:00:00 28.9 8 Nordeste 18 Este 0 -- -- 25
2020-09-03 15:00:00 28.3 6 Noroeste 17 Norte 0 -- -- 26
2020-09-03 14:00:00 27 8 Nordeste 15 Nordeste 0 -- -- 30
2020-09-03 13:00:00 25.3 4 Sudoeste 13 Sudoeste 0 -- -- 38
2020-09-03 12:00:00 23.3 4 Nordeste 14 Oeste 0 -- -- 40
2020-09-03 11:00:00 20.6 3 Nordeste 6 Este 0 -- -- 48
2020-09-03 10:00:00 14.7 0 Calma -- -- 0 -- -- 68
2020-09-03 09:00:00 9.8 0 Calma -- -- 0 -- -- 94
2020-09-03 08:00:00 7.6 0 Calma -- -- 0 -- -- 95
2020-09-03 07:00:00 7.8 0 Calma -- -- 0 -- -- 94
2020-09-03 06:00:00 8.3 0 Calma -- -- 0 -- -- 93
2020-09-03 05:00:00 8.6 0 Calma -- -- 0 -- -- 92
2020-09-03 04:00:00 9 0 Calma -- -- 0 -- -- 90
2020-09-03 03:00:00 9.6 0 Calma -- -- 0 -- -- 88
2020-09-03 02:00:00 10.3 0 Calma -- -- 0 -- -- 83
2020-09-03 01:00:00 11.3 0 Calma -- -- 0 -- -- 82
2020-09-03 00:00:00 12.6 0 Calma -- -- 0 -- -- 75
2020-09-02 23:00:00 14.3 0 Calma 3 Sudoeste 0 -- -- 66
2020-09-02 22:00:00 17 0 Calma 5 Sudoeste 0 -- -- 56
2020-09-02 21:00:00 20.8 4 Sudoeste 10 Oeste 0 -- -- 45
2020-09-02 20:00:00 24.5 6 Oeste 17 Oeste 0 -- -- 36
2020-09-02 19:00:00 26.1 6 Noroeste 26 Oeste 0 -- -- 32
2020-09-02 18:00:00 25.9 12 Noroeste 25 Oeste 0 -- -- 32
2020-09-02 17:00:00 26.2 9 Norte 25 Oeste 0 -- -- 33
2020-09-02 16:00:00 26.1 9 Noroeste 26 Oeste 0 -- -- 33
2020-09-02 15:00:00 24.9 12 Noroeste 25 Noroeste 0 -- -- 34
2020-09-02 14:00:00 23.8 12 Noroeste 24 Oeste 0 -- -- 37
2020-09-02 13:00:00 22.7 10 Noroeste 23 Noroeste 0 -- -- 42
2020-09-02 12:00:00 21.1 8 Oeste 21 Noroeste 0 -- -- 48
2020-09-02 11:00:00 19.3 10 Oeste 20 Noroeste 0 -- -- 54
2020-09-02 10:00:00 16.9 8 Oeste 20 Oeste 0 -- -- 63
2020-09-02 09:00:00 10.7 0 Calma 5 Oeste 0 -- -- 85
2020-09-02 08:00:00 8 0 Calma 6 Oeste 0 -- -- 92
2020-09-02 07:00:00 8.6 0 Calma 9 Oeste 0 -- -- 89
2020-09-02 06:00:00 8.9 0 Calma 5 Sudeste 0 -- -- 88
2020-09-02 05:00:00 9.6 0 Calma 8 Oeste 0 -- -- 85
2020-09-02 04:00:00 10.4 2 Oeste 7 Oeste 0 -- -- 84
2020-09-02 03:00:00 11.6 0 Calma 5 Sudeste 0 -- -- 78
2020-09-02 02:00:00 11.7 2 Sudeste 6 Oeste 0 -- -- 76
2020-09-02 01:00:00 11.9 4 Oeste 8 Oeste 0 -- -- 78
2020-09-02 00:00:00 13.2 0 Calma 4 Sudoeste 0 -- -- 76
2020-09-01 23:00:00 15.1 0 Calma 6 Sudoeste 0 -- -- 57
2020-09-01 22:00:00 17.4 0 Calma 8 Oeste 0 -- -- 60
2020-09-01 21:00:00 20.4 0 Calma 8 Sur 0 -- -- 41
2020-09-01 20:00:00 22.4 4 Oeste 10 Oeste 0 -- -- 37
2020-09-01 19:00:00 23.3 5 Noroeste 13 Oeste 0 -- -- 34
2020-09-01 18:00:00 24 8 Noroeste 16 Noroeste 0 -- -- 33
2020-09-01 17:00:00 24.4 8 Noroeste 15 Noroeste 0 -- -- 35
2020-09-01 16:00:00 24.3 8 Noroeste 21 Noroeste 0 -- -- 36
2020-09-01 15:00:00 25.3 5 Oeste 14 Oeste 0 -- -- 35
2020-09-01 14:00:00 25 6 Oeste 17 Noroeste 0 -- -- 37
2020-09-01 13:00:00 23.8 2 Nordeste 14 Este 0 -- -- 37
2020-09-01 12:00:00 22.4 5 Sudeste 10 Este 0 -- -- 42
2020-09-01 11:00:00 19.8 0 Calma 6 Oeste 0 -- -- 47
2020-09-01 10:00:00 16.4 3 Norte 10 Este 0 -- -- 66
2020-09-01 09:00:00 11 0 Calma 3 Oeste 0 -- -- 88
2020-09-01 08:00:00 9.7 0 Calma 5 Oeste 0 -- -- 90
2020-09-01 07:00:00 9.5 3 Oeste 5 Oeste 0 -- -- 89
2020-09-01 06:00:00 10 0 Calma 5 Oeste 0 -- -- 87
2020-09-01 05:00:00 10.9 0 Calma 3 Este 0 -- -- 84
2020-09-01 04:00:00 11.9 0 Calma 4 Oeste 0 -- -- 80
2020-09-01 03:00:00 13 0 Calma 3 Sudeste 0 -- -- 77
2020-09-01 02:00:00 13.9 0 Calma 4 Sudoeste 0 -- -- 71
2020-09-01 01:00:00 14.7 2 Oeste 6 Oeste 0 -- -- 63
2020-09-01 00:00:00 15.1 4 Oeste 7 Oeste 0 -- -- 59
2020-08-31 23:00:00 16 0 Calma 4 Oeste 0 -- -- 57
2020-08-31 22:00:00 17.4 0 Calma 8 Sudoeste 0 -- -- 53
2020-08-31 21:00:00 20.5 3 Sur 9 Nordeste 0 -- -- 37
2020-08-31 20:00:00 23.4 6 Nordeste 14 Noroeste 0 -- -- 31
2020-08-31 19:00:00 25.1 6 Nordeste 21 Noroeste 0 -- -- 30
2020-08-31 18:00:00 25.2 9 Noroeste 21 Norte 0 -- -- 28
2020-08-31 17:00:00 25.2 9 Noroeste 22 Oeste 0 -- -- 28
2020-08-31 16:00:00 24.4 8 Noroeste 20 Oeste 0 -- -- 31
2020-08-31 15:00:00 23.2 6 Noroeste 17 Oeste 0 -- -- 34
2020-08-31 14:00:00 22 6 Sur 24 Oeste 0 -- -- 36
2020-08-31 13:00:00 20.4 10 Noroeste 20 Oeste 0 -- -- 39
2020-08-31 12:00:00 18.9 8 Noroeste 21 Noroeste 0 -- -- 44
2020-08-31 11:00:00 17.2 5 Noroeste 17 Oeste 0 -- -- 50
2020-08-31 10:00:00 15.2 12 Noroeste 26 Noroeste 0 -- -- 59
2020-08-31 09:00:00 12.1 5 Oeste 9 Oeste 0 -- -- 72
2020-08-31 08:00:00 7.8 2 Sur 8 Noroeste 0 -- -- 90
2020-08-31 07:00:00 8 0 Calma 5 Oeste 0 -- -- 87
2020-08-31 06:00:00 9.1 2 Sudeste 6 Oeste 0 -- -- 83
2020-08-31 05:00:00 10.8 4 Sudoeste 8 Sur 0 -- -- 75
2020-08-31 04:00:00 12 6 Sudoeste 15 Oeste 0 -- -- 68
2020-08-31 03:00:00 13.3 6 Sudoeste 19 Oeste 0 -- -- 63
2020-08-31 02:00:00 13.5 8 Oeste 19 Oeste 0 -- -- 63
2020-08-31 01:00:00 14.4 6 Sur 21 Sudoeste 0 -- -- 59
2020-08-31 00:00:00 15.3 10 Oeste 26 Oeste 0 -- -- 58
2020-08-30 23:00:00 16.1 10 Oeste 23 Oeste 0 -- -- 54
2020-08-30 22:00:00 16.7 10 Oeste 26 Oeste 0 -- -- 52
2020-08-30 21:00:00 17.7 10 Oeste 27 Noroeste 0 -- -- 49
2020-08-30 20:00:00 19.5 13 Noroeste 27 Oeste 0 -- -- 45
2020-08-30 19:00:00 20.8 15 Noroeste 32 Oeste 0 -- -- 40
2020-08-30 18:00:00 21 17 Noroeste 33 Oeste 0 -- -- 39
2020-08-30 17:00:00 21.6 15 Oeste 33 Oeste 0 -- -- 37
2020-08-30 16:00:00 20.6 14 Oeste 31 Noroeste 0 -- -- 40
2020-08-30 15:00:00 20 17 Noroeste 34 Oeste 0 -- -- 43
2020-08-30 14:00:00 19.6 17 Oeste 30 Noroeste 0 -- -- 44
2020-08-30 13:00:00 19 16 Noroeste 37 Oeste 0 -- -- 46
2020-08-30 12:00:00 17.5 19 Noroeste 35 Noroeste 0 -- -- 50
2020-08-30 11:00:00 16.7 16 Noroeste 36 Oeste 0 -- -- 52
2020-08-30 10:00:00 15 19 Oeste 33 Oeste 0 -- -- 58
2020-08-30 09:00:00 13.9 13 Oeste 25 Sudoeste 0 -- -- 62
2020-08-30 08:00:00 12.7 8 Oeste 28 Oeste 0 -- -- 62
2020-08-30 07:00:00 12.7 8 Oeste 30 Oeste 0 -- -- 62
2020-08-30 06:00:00 13.3 15 Oeste 33 Oeste 0 -- -- 60
2020-08-30 05:00:00 13.3 9 Oeste 26 Oeste 0 -- -- 61
2020-08-30 04:00:00 13.5 9 Oeste 28 Oeste 0 -- -- 65
2020-08-30 03:00:00 14 13 Oeste 40 Sudoeste 0 -- -- 65
2020-08-30 02:00:00 14.7 15 Oeste 38 Oeste 0 -- -- 66
2020-08-30 01:00:00 15.2 15 Oeste 40 Oeste 0 -- -- 65
2020-08-30 00:00:00 16 15 Oeste 31 Oeste 0 -- -- 61
2020-08-29 23:00:00 16.5 13 Norte 33 Oeste 0 -- -- 61
2020-08-29 22:00:00 17.3 15 Oeste 36 Noroeste 0 -- -- 54
2020-08-29 21:00:00 18.8 20 Oeste 44 Oeste 0 -- -- 47
2020-08-29 20:00:00 21.1 17 Oeste 39 Oeste 0 -- -- 39
2020-08-29 19:00:00 22.1 17 Noroeste 39 Noroeste 0 -- -- 37
2020-08-29 18:00:00 22.7 14 Noroeste 36 Oeste 0 -- -- 35
2020-08-29 17:00:00 22.8 18 Noroeste 41 Noroeste 0 -- -- 36
2020-08-29 16:00:00 22.3 16 Oeste 36 Noroeste 0 -- -- 38
2020-08-29 15:00:00 20.6 18 Noroeste 35 Noroeste 0 -- -- 43
2020-08-29 14:00:00 20.3 12 Oeste 37 Noroeste 0 -- -- 46
2020-08-29 13:00:00 18.5 18 Noroeste 32 Oeste 0 -- -- 51
2020-08-29 12:00:00 18.4 15 Noroeste 35 Oeste 0 -- -- 53
2020-08-29 11:00:00 17.3 14 Oeste 32 Oeste 0 -- -- 58
2020-08-29 10:00:00 16.4 14 Oeste 32 Oeste 0 -- -- 59
2020-08-29 09:00:00 16.3 13 Oeste 25 Oeste 0 -- -- 55
2020-08-29 08:00:00 16.2 13 Oeste 20 Oeste 0 -- -- 55
2020-08-29 07:00:00 16.2 10 Oeste 25 Oeste 0 -- -- 59
2020-08-29 06:00:00 16.4 11 Oeste 26 Noroeste 0 -- -- 61
2020-08-29 05:00:00 16.5 9 Oeste 22 Oeste 0 -- -- 62
2020-08-29 04:00:00 16.8 7 Oeste 22 Oeste 0 -- -- 63
2020-08-29 03:00:00 17 8 Oeste 23 Oeste 0 -- -- 63
2020-08-29 02:00:00 17.3 8 Oeste 21 Oeste 0 -- -- 65
2020-08-29 01:00:00 17.8 9 Oeste 24 Oeste 0 -- -- 66
2020-08-29 00:00:00 18.5 2 Oeste 20 Oeste 0 -- -- 68
2020-08-28 23:00:00 19.6 12 Oeste 21 Oeste 0 -- -- 63
2020-08-28 22:00:00 20.6 9 Oeste 27 Noroeste 0 -- -- 62
2020-08-28 21:00:00 22.4 14 Oeste 28 Oeste 0 -- -- 61
2020-08-28 20:00:00 23.6 7 Oeste 18 Noroeste 0 -- -- 70
2020-08-28 19:00:00 23.1 9 Sudeste 35 Oeste 0.4 -- -- 78
2020-08-28 18:00:00 27.4 13 Oeste 28 Oeste 0 -- -- 53
2020-08-28 17:00:00 28.7 5 Noroeste 16 Norte 0 -- -- 51
2020-08-28 16:00:00 29.3 7 Oeste 18 Oeste 0 -- -- 50
2020-08-28 15:00:00 29.1 6 Nordeste 17 Noroeste 0 -- -- 52
2020-08-28 14:00:00 28.1 7 Nordeste 21 Oeste 0 -- -- 54
2020-08-28 13:00:00 26.9 7 Noroeste 16 Noroeste 0 -- -- 57
2020-08-28 12:00:00 25.9 8 Oeste 18 Oeste 0 -- -- 59
2020-08-28 11:00:00 24.9 6 Oeste 13 Oeste 0 -- -- 64
2020-08-28 10:00:00 21.7 5 Oeste 10 Oeste 0 -- -- 78
2020-08-28 09:00:00 18.8 3 Oeste 5 Oeste 0 -- -- 93
2020-08-28 08:00:00 17.3 0 Calma 3 Oeste 0 -- -- 95
2020-08-28 07:00:00 17.7 4 Oeste 5 Oeste 0 -- -- 92
2020-08-28 06:00:00 18.5 0 Calma 3 Sudoeste 0 -- -- 89
2020-08-28 05:00:00 19.3 0 Calma 4 Sudeste 0 -- -- 86
2020-08-28 04:00:00 19.9 0 Calma 9 Oeste 0 -- -- 86
2020-08-28 03:00:00 20.3 2 Nordeste 9 Oeste 0 -- -- 84
2020-08-28 02:00:00 20.8 2 Oeste 6 Oeste 0 -- -- 82
2020-08-28 01:00:00 21.9 4 Oeste 10 Oeste 0 -- -- 78
2020-08-28 00:00:00 22.9 3 Sudoeste 6 Sudoeste 0 -- -- 75
2020-08-27 23:00:00 24 0 Calma 8 Oeste 0 -- -- 72
2020-08-27 22:00:00 26.1 4 Oeste 6 Sudoeste 0 -- -- 66
2020-08-27 21:00:00 29 4 Sudeste 9 Este 0 -- -- 58
2020-08-27 20:00:00 31.2 7 Este 17 Este 0 -- -- 52
2020-08-27 19:00:00 32.7 8 Este 20 Nordeste 0 -- -- 49
2020-08-27 18:00:00 33.3 8 Nordeste 25 Norte 0 -- -- 45
2020-08-27 17:00:00 34.5 5 Este 15 Norte 0 -- -- 35
2020-08-27 16:00:00 33.8 5 Norte 21 Norte 0 -- -- 35
2020-08-27 15:00:00 32.7 5 Sudeste 14 Norte 0 -- -- 38
2020-08-27 14:00:00 31.7 6 Oeste 11 Oeste 0 -- -- 42
2020-08-27 13:00:00 30 5 Oeste 14 Noroeste 0 -- -- 47
2020-08-27 12:00:00 28.2 5 Noroeste 13 Oeste 0 -- -- 52
2020-08-27 11:00:00 26.5 7 Oeste 13 Oeste 0 -- -- 58
2020-08-27 10:00:00 23.4 0 Calma -- -- 0 -- -- 73
2020-08-27 09:00:00 19.9 0 Calma -- -- 0 -- -- 90
2020-08-27 08:00:00 17.9 0 Calma 3 Sur 0 -- -- 94
2020-08-27 07:00:00 18.3 0 Calma 4 Oeste 0 -- -- 93
2020-08-27 06:00:00 19 2 Oeste 5 Sudoeste 0 -- -- 92
2020-08-27 05:00:00 19.7 0 Calma 4 Oeste 0 -- -- 91
2020-08-27 04:00:00 20.5 0 Calma 3 Sudoeste 0 -- -- 91
2020-08-27 03:00:00 20.9 0 Calma 5 Oeste 0 -- -- 92
2020-08-27 02:00:00 21.5 0 Calma 4 Oeste 0 -- -- 89
2020-08-27 01:00:00 22.3 2 Sudoeste 4 Sudoeste 0 -- -- 87
2020-08-27 00:00:00 23.5 0 Calma 4 Sudoeste 0 -- -- 84
2020-08-26 23:00:00 25 3 Oeste 5 Sudoeste 0 -- -- 78
2020-08-26 22:00:00 27 3 Sur 8 Sudoeste 0 -- -- 71
2020-08-26 21:00:00 29.4 3 Sudoeste 11 Este 0 -- -- 65
2020-08-26 20:00:00 31.6 5 Este 17 Este 0 -- -- 58
2020-08-26 19:00:00 33.3 8 Nordeste 14 Norte 0 -- -- 53
2020-08-26 18:00:00 34.1 8 Nordeste 18 Nordeste 0 -- -- 50
2020-08-26 17:00:00 34.3 6 Nordeste 18 Norte 0 -- -- 47
2020-08-26 16:00:00 33.7 8 Nordeste 20 Nordeste 0 -- -- 47
2020-08-26 15:00:00 33 6 Este 14 Nordeste 0 -- -- 48
2020-08-26 14:00:00 31.8 8 Norte 18 Norte 0 -- -- 47
2020-08-26 13:00:00 30.5 3 Nordeste 13 Nordeste 0 -- -- 46
2020-08-26 12:00:00 28.6 7 Nordeste 13 Nordeste 0 -- -- 47
2020-08-26 11:00:00 26.7 3 Nordeste 10 Nordeste 0 -- -- 47
2020-08-26 10:00:00 22.7 0 Calma 5 Oeste 0 -- -- 64
2020-08-26 09:00:00 19 0 Calma 4 Oeste 0 -- -- 77
2020-08-26 08:00:00 17.2 0 Calma 4 Oeste 0 -- -- 84
2020-08-26 07:00:00 18 0 Calma 3 Sur 0 -- -- 81
2020-08-26 06:00:00 19.5 0 Calma 7 Sudeste 0 -- -- 75
2020-08-26 05:00:00 19.5 4 Noroeste 11 Oeste 0 -- -- 74
2020-08-26 04:00:00 18.2 0 Calma 13 Oeste 0 -- -- 72
2020-08-26 03:00:00 18.7 4 Oeste 7 Oeste 0 -- -- 76
2020-08-26 02:00:00 19.8 2 Oeste 7 Oeste 0 -- -- 70
2020-08-26 01:00:00 20.2 4 Oeste 8 Oeste 0 -- -- 70
2020-08-26 00:00:00 21.8 2 Oeste 8 Sudoeste 0 -- -- 63
2020-08-25 23:00:00 23.4 2 Sudoeste 10 Sudoeste 0 -- -- 60
2020-08-25 22:00:00 26.3 4 Sur 9 Sudoeste 0 -- -- 48
2020-08-25 21:00:00 29.6 2 Este 12 Este 0 -- -- 44
2020-08-25 20:00:00 32.2 4 Este 26 Este 0 -- -- 40
2020-08-25 19:00:00 33.2 10 Sudeste 23 Sudeste 0 -- -- 40
2020-08-25 18:00:00 35.1 5 Oeste 15 Noroeste 0 -- -- 35
2020-08-25 17:00:00 34.6 6 Norte 18 Norte 0 -- -- 29
2020-08-25 16:00:00 34.1 9 Este 24 Este 0 -- -- 31
2020-08-25 15:00:00 33 5 Este 16 Norte 0 -- -- 35
2020-08-25 14:00:00 32 7 Norte 20 Norte 0 -- -- 42
2020-08-25 13:00:00 31 7 Noroeste 17 Sudoeste 0 -- -- 44
2020-08-25 12:00:00 29.7 5 Noroeste 14 Norte 0 -- -- 52
2020-08-25 11:00:00 27 3 Noroeste 6 Noroeste 0 -- -- 61
2020-08-25 10:00:00 22.7 0 Calma -- -- 0 -- -- 76
2020-08-25 09:00:00 18.8 0 Calma -- -- 0 -- -- 88
2020-08-25 08:00:00 16.2 0 Calma -- -- 0 -- -- 94
2020-08-25 07:00:00 16.1 0 Calma -- -- 0 -- -- 92
2020-08-25 06:00:00 16.5 0 Calma -- -- 0 -- -- 91
2020-08-25 05:00:00 16.9 0 Calma -- -- 0 -- -- 91
2020-08-25 04:00:00 17.2 0 Calma -- -- 0 -- -- 88
2020-08-25 03:00:00 17.5 0 Calma 3 Sudoeste 0 -- -- 87
2020-08-25 02:00:00 18.2 0 Calma 5 Este 0 -- -- 84
2020-08-25 01:00:00 18.6 2 Este 8 Oeste 0 -- -- 82
2020-08-25 00:00:00 19.2 0 Calma 4 Oeste 0 -- -- 78
2020-08-24 23:00:00 20.5 2 Oeste 5 Sudoeste 0 -- -- 73
2020-08-24 22:00:00 22.5 0 Calma 5 Sudoeste 0 -- -- 63
2020-08-24 21:00:00 25.5 0 Calma 8 Norte 0 -- -- 54
2020-08-24 20:00:00 28.5 3 Nordeste 10 Nordeste 0 -- -- 40
2020-08-24 19:00:00 29.7 4 Nordeste 17 Norte 0 -- -- 36
2020-08-24 18:00:00 29.8 7 Nordeste 18 Nordeste 0 -- -- 36
2020-08-24 17:00:00 29.7 6 Noroeste 20 Norte 0 -- -- 35
2020-08-24 16:00:00 29.4 8 Noroeste 22 Norte 0 -- -- 35
2020-08-24 15:00:00 28.5 8 Noroeste 15 Norte 0 -- -- 36
2020-08-24 14:00:00 26.9 4 Sudoeste 17 Noroeste 0 -- -- 38
2020-08-24 13:00:00 25.1 5 Nordeste 15 Noroeste 0 -- -- 40
2020-08-24 12:00:00 23.5 5 Noroeste 17 Noroeste 0 -- -- 43
2020-08-24 11:00:00 21.6 5 Noroeste 18 Oeste 0 -- -- 48
2020-08-24 10:00:00 18.8 5 Noroeste 9 Noroeste 0 -- -- 59
2020-08-24 09:00:00 14.4 0 Calma 3 Noroeste 0 -- -- 74
2020-08-24 08:00:00 11.2 0 Calma -- -- 0 -- -- 91
2020-08-24 07:00:00 11.3 0 Calma 6 Oeste 0 -- -- 89
2020-08-24 06:00:00 11.8 4 Oeste 8 Oeste 0 -- -- 87
2020-08-24 05:00:00 12.3 0 Calma 5 Oeste 0 -- -- 86
2020-08-24 04:00:00 13.1 0 Calma 6 Oeste 0 -- -- 82
2020-08-24 03:00:00 14 2 Sudoeste 6 Oeste 0 -- -- 80
2020-08-24 02:00:00 14.6 0 Calma 5 Sur 0 -- -- 75
2020-08-24 01:00:00 15.4 2 Oeste 9 Sur 0 -- -- 72
2020-08-24 00:00:00 16.7 0 Calma 7 Sudeste 0 -- -- 67
2020-08-23 23:00:00 18.2 0 Calma 4 Sudeste 0 -- -- 61
2020-08-23 22:00:00 20.8 0 Calma 9 Sudoeste 0 -- -- 50
2020-08-23 21:00:00 25 3 Sudoeste 15 Oeste 0 -- -- 38
2020-08-23 20:00:00 28.2 7 Oeste 18 Oeste 0 -- -- 35
2020-08-23 19:00:00 29.4 11 Oeste 21 Oeste 0 -- -- 34
2020-08-23 18:00:00 29.6 8 Oeste 19 Noroeste 0 -- -- 39
2020-08-23 17:00:00 29.6 10 Oeste 22 Oeste 0 -- -- 42
2020-08-23 16:00:00 28.9 9 Oeste 21 Oeste 0 -- -- 43
2020-08-23 15:00:00 28.1 8 Noroeste 20 Oeste 0 -- -- 44
2020-08-23 14:00:00 26.9 9 Sur 15 Noroeste 0 -- -- 45
2020-08-23 13:00:00 25.3 6 Oeste 16 Oeste 0 -- -- 48
2020-08-23 12:00:00 23.8 6 Noroeste 17 Noroeste 0 -- -- 52
2020-08-23 11:00:00 22.5 10 Noroeste 19 Noroeste 0 -- -- 55
2020-08-23 10:00:00 21.2 8 Noroeste 15 Oeste 0 -- -- 61
2020-08-23 09:00:00 17.9 2 Oeste 10 Oeste 0 -- -- 75
2020-08-23 08:00:00 15.5 0 Calma 7 Oeste 0 -- -- 85
2020-08-23 07:00:00 15.7 0 Calma 9 Sur 0 -- -- 80
2020-08-23 06:00:00 15.2 3 Sur 8 Oeste 0 -- -- 84
2020-08-23 05:00:00 15.6 0 Calma 4 Sudoeste 0 -- -- 84
2020-08-23 04:00:00 16.9 2 Oeste 5 Oeste 0 -- -- 79
2020-08-23 03:00:00 18.5 3 Sudoeste 8 Sur 0 -- -- 75
2020-08-23 02:00:00 18.5 3 Sudoeste 9 Sudoeste 0 -- -- 75
2020-08-23 01:00:00 18.6 0 Calma 5 Oeste 0 -- -- 75
2020-08-23 00:00:00 19.7 2 Este 5 Sudeste 0 -- -- 68
2020-08-22 23:00:00 20.6 2 Sudoeste 6 Noroeste 0 -- -- 71
2020-08-22 22:00:00 22.9 2 Sudoeste 5 Sudoeste 0 -- -- 58
2020-08-22 21:00:00 27 5 Sudoeste 13 Oeste 0 -- -- 43
2020-08-22 20:00:00 30.5 3 Oeste 18 Oeste 0 -- -- 37
2020-08-22 19:00:00 31.2 10 Noroeste 18 Oeste 0 -- -- 37
2020-08-22 18:00:00 31.5 6 Norte 20 Noroeste 0 -- -- 35
2020-08-22 17:00:00 31.7 8 Nordeste 19 Nordeste 0 -- -- 35
2020-08-22 16:00:00 31.1 9 Norte 19 Noroeste 0 -- -- 40
2020-08-22 15:00:00 29.9 8 Noroeste 17 Oeste 0 -- -- 45
2020-08-22 14:00:00 28.7 11 Oeste 19 Noroeste 0 -- -- 51
2020-08-22 13:00:00 27.9 9 Oeste 17 Noroeste 0 -- -- 54
2020-08-22 12:00:00 26.6 6 Noroeste 18 Oeste 0 -- -- 58
2020-08-22 11:00:00 25 8 Noroeste 14 Oeste 0 -- -- 62
2020-08-22 10:00:00 23.4 7 Noroeste 15 Noroeste 0 -- -- 64
2020-08-22 09:00:00 21.2 3 Noroeste 7 Noroeste 0 -- -- 75
2020-08-22 08:00:00 17.7 0 Calma 6 Oeste 0 -- -- 91
2020-08-22 07:00:00 17.6 0 Calma 4 Sur 0 -- -- 89
2020-08-22 06:00:00 18.4 0 Calma 16 Sudoeste 0 -- -- 87
2020-08-22 05:00:00 19.3 2 Norte 5 Oeste 0 -- -- 83
2020-08-22 04:00:00 21.1 3 Sur 10 Sudoeste 0 -- -- 75
2020-08-22 03:00:00 22.9 6 Sudoeste 13 Oeste 0 -- -- 69
2020-08-22 02:00:00 24.3 3 Sudoeste 19 Oeste 0 -- -- 64
2020-08-22 01:00:00 25.7 6 Sudoeste 33 Noroeste 0 -- -- 61
2020-08-22 00:00:00 22.3 2 Este 6 Sudoeste 0 -- -- 71
2020-08-21 23:00:00 24 2 Sudoeste 7 Sudoeste 0 -- -- 63
2020-08-21 22:00:00 26.9 4 Oeste 10 Sudeste 0 -- -- 51
2020-08-21 21:00:00 30.7 6 Sudeste 13 Sur 0 -- -- 39
2020-08-21 20:00:00 33.3 5 Sudeste 16 Este 0 -- -- 38
2020-08-21 19:00:00 34.1 10 Sudeste 21 Este 0 -- -- 41
2020-08-21 18:00:00 33.8 10 Este 22 Este 0 -- -- 47
2020-08-21 17:00:00 35.2 5 Norte 17 Nordeste 0 -- -- 34
2020-08-21 16:00:00 35.1 6 Nordeste 17 Nordeste 0 -- -- 31
2020-08-21 15:00:00 34.1 9 Norte 20 Oeste 0 -- -- 29
2020-08-21 14:00:00 33.3 7 Noroeste 15 Noroeste 0 -- -- 27
2020-08-21 13:00:00 32.2 7 Nordeste 16 Noroeste 0 -- -- 32
2020-08-21 12:00:00 31.2 8 Oeste 13 Oeste 0 -- -- 36
2020-08-21 11:00:00 28.6 5 Oeste 10 Oeste 0 -- -- 43
2020-08-21 10:00:00 23.4 0 Calma 4 Sur 0 -- -- 53
2020-08-21 09:00:00 19.7 0 Calma 6 Oeste 0 -- -- 68
2020-08-21 08:00:00 16 0 Calma 7 Oeste 0 -- -- 81
2020-08-21 07:00:00 16.2 2 Oeste 11 Oeste 0 -- -- 77
2020-08-21 06:00:00 17.1 3 Este 5 Noroeste 0 -- -- 74
2020-08-21 05:00:00 18.5 2 Sur 5 Sur 0 -- -- 68
2020-08-21 04:00:00 20.4 0 Calma 12 Sudoeste 0 -- -- 60
2020-08-21 03:00:00 23.2 3 Sudoeste 19 Sudeste 0 -- -- 50
2020-08-21 02:00:00 27.1 12 Sudeste 28 Sur 0 -- -- 37
2020-08-21 01:00:00 27.1 5 Sur 16 Sudoeste 0 -- -- 37
2020-08-21 00:00:00 27.8 7 Norte 32 Sudeste 0 -- -- 32